Time;durP1;ratioP1;P1;durP2;ratioP2;P2;SDS_P1;SDS_P2;PMS_P1;PMS_P2;Temp;Humidity;BMP_temperature;BMP_pressure;BME280_temperature;BME280_humidity;BME280_pressure;Samples;Min_cycle;Max_cycle;Signal;HPM_P1;HPM_P2
2022/07/08 00:06:55;;;;;;;;;;;;;;;15.34;54.12402;103136.2;;;;-82
2022/07/08 00:16:49;;;;;;;;;;;;;;;15.53;53.29004;103121.6;;;;-81
2022/07/08 00:49:30;;;;;;;;;;;;;;;14.77;54.63867;103132.6;;;;-81
2022/07/08 01:20:40;;;;;;;;;;;;;;;;;;;;;
2022/07/08 01:27:30;;;;;;;;;;;;;;;14.57;54.31055;103144.4;;;;-79
2022/07/08 01:29:47;;;;;;;;;;;;;;;14.41;54.51563;103135.2;;;;-80
2022/07/08 01:47:49;;;;;;;;;;;;;;;13.81;55.72266;103142.3;;;;-81
2022/07/08 02:23:12;;;;;;;;;;;;;;;13.41;56.26563;103125.5;;;;-83
2022/07/08 02:32:57;;;;;;;;;;;;;;;13.3;56.4541;103125.5;;;;-81
2022/07/08 02:40:16;;;;;;;;;;;;;;;13.22;56.37598;103125;;;;-82
2022/07/08 02:51:13;;;;;;;;;;;;;;;13.43;56.17871;103128.3;;;;-81
2022/07/08 03:37:35;;;;;;;;;;;;;;;13.14;56.34473;103105.4;;;;-81
2022/07/08 03:45:31;;;;;;;;;;;;;;;12.8;57.15137;103117.1;;;;-80
2022/07/08 04:12:29;;;;;;;;;;;;;;;13.52;55.91016;103135.1;;;;-80
2022/07/08 04:16:23;;;;;;;;;;;;;;;13.08;56.72852;103143.7;;;;-81
2022/07/08 04:34:47;;;;;;;;;;;;;;;13.35;56.29102;103149.3;;;;-81
2022/07/08 04:45:25;;;;;;;;;;;;;;;13.52;56.17871;103155;;;;-84
2022/07/08 05:01:32;;;;;;;;;;;;;;;13.91;55.8584;103171.1;;;;-81
2022/07/08 05:09:01;;;;;;;;;;;;;;;14.45;55.15234;103165.6;;;;-81
2022/07/08 05:12:43;;;;;;;;;;;;;;;14.19;55.45605;103168.5;;;;-81
2022/07/08 05:15:48;;;;;;;;;;;;;;;14.52;54.96875;103166.3;;;;-81
2022/07/08 05:35:28;;;;;;;;;;;;;;;14.84;54.81738;103175.5;;;;-82
2022/07/08 05:41:48;;;;;;;;;;;;;;;15.29;54.60254;103178.4;;;;-80
2022/07/08 05:44:42;;;;;;;;;;;;;;;15.12;54.90723;103176.9;;;;-81
2022/07/08 05:45:56;;;;;;;;;;;;;;;15.39;54.46777;103179.3;;;;-80
2022/07/08 06:05:16;;;;;;;;;;;;;;;16.17;54.32715;103192.2;;;;-79
2022/07/08 06:27:16;;;;;;;;;;;;;;;17.26;53.71484;103185;;;;-82
2022/07/08 06:34:09;;;;;;;;;;;;;;;17.06;53.53125;103190.4;;;;-82
2022/07/08 06:36:16;;;;;;;;;;;;;;;17.54;53.99805;103199.7;;;;-80
2022/07/08 06:40:43;;;;;;;;;;;;;;;17.32;54.08496;103203.7;;;;-82
2022/07/08 06:55:59;;;;;;;5.3;1.3;;;;;;;;;;;;;-82
2022/07/08 06:58:51;;;;;;;;;;;;;;;;;;;;;
2022/07/08 07:16:00;;;;;;;;;;;;;;;19.81;52.29102;103207.4;;;;-80
2022/07/08 07:38:34;;;;;;;;;;;;;;;21.59;49.70898;103193.7;;;;-81
2022/07/08 08:42:14;;;;;;;;;;;;;;;26.59;41.86133;103210.3;;;;-83
2022/07/08 08:47:00;;;;;;;;;;;;;;;26.84;41.61719;103211.7;;;;-84
2022/07/08 09:29:11;;;;;;;;;;;;;;;28.68;37.01465;103202.4;;;;-85
2022/07/08 10:04:16;;;;;;;;;;;;;;;30.36;36.31934;103201.3;;;;-82
2022/07/08 10:44:31;;;;;;;;;;;;;;;;;;;;;
2022/07/08 11:12:48;;;;;;;;;;;;;;;33.04;34.56348;103186.8;;;;-81
2022/07/08 11:16:55;;;;;;;;;;;;;;;32.62;35.22754;103194.9;;;;-85
2022/07/08 11:47:20;;;;;;;;;;;;;;;32.98;35.64453;103193.7;;;;-77
2022/07/08 11:51:40;;;;;;;;;;;;;;;32.62;35.89941;103184.5;;;;-81
2022/07/08 11:56:24;;;;;;;6.9;1.5;;;;;;;;;;;;;-79
2022/07/08 11:56:40;;;;;;;;;;;;;;;32.67;36.32617;103188.6;;;;-79
2022/07/08 12:01:41;;;;;;;;;;;;;;;32.73;36.23828;103180.1;;;;-73
2022/07/08 12:06:48;;;;;;;;;;;;;;;32.72;36.34277;103172.4;;;;-74
2022/07/08 12:11:42;;;;;;;;;;;;;;;32.83;36.43359;103176.7;;;;-73
2022/07/08 12:16:45;;;;;;;;;;;;;;;32.93;36.39453;103174.3;;;;-72
2022/07/08 12:21:40;;;;;;;;;;;;;;;32.9;36.35742;103173;;;;-73
2022/07/08 12:26:26;;;;;;;6.2;1.6;;;;;;;;;;;;;-74
2022/07/08 12:26:42;;;;;;;;;;;;;;;32.84;36.58789;103172.4;;;;-74
2022/07/08 12:31:41;;;;;;;;;;;;;;;32.93;36.52441;103173.7;;;;-73
2022/07/08 12:36:40;;;;;;;;;;;;;;;32.99;36.89453;103166.8;;;;-73
2022/07/08 12:41:40;;;;;;;;;;;;;;;33.04;36.68652;103169.9;;;;-75
2022/07/08 12:46:40;;;;;;;;;;;;;;;33.16;36.69531;103167.9;;;;-74
2022/07/08 12:51:40;;;;;;;;;;;;;;;33.29;36.5293;103164.2;;;;-73
2022/07/08 12:56:31;;;;;;;8.5;2;;;;;;;;;;;;;-73
2022/07/08 12:56:41;;;;;;;;;;;;;;;33.39;36.19531;103161.9;;;;-76
2022/07/08 13:01:40;;;;;;;;;;;;;;;33.51;36.25195;103158;;;;-74
2022/07/08 13:06:42;;;;;;;;;;;;;;;33.53;36.00586;103166.2;;;;-73
2022/07/08 13:11:40;;;;;;;;;;;;;;;33.45;35.8457;103164.8;;;;-73
2022/07/08 13:16:40;;;;;;;;;;;;;;;33.39;35.99512;103157.7;;;;-73
2022/07/08 13:21:40;;;;;;;;;;;;;;;33.32;35.93066;103163.4;;;;-75
2022/07/08 13:26:37;;;;;;;6.8;2;;;;;;;;;;;;;-73
2022/07/08 13:26:47;;;;;;;;;;;;;;;33.39;36.07715;103161.5;;;;-77
2022/07/08 13:31:40;;;;;;;;;;;;;;;33.49;35.66016;103157.7;;;;-73
2022/07/08 13:36:40;;;;;;;;;;;;;;;33.57;35.64355;103152;;;;-74
2022/07/08 13:41:40;;;;;;;;;;;;;;;33.61;35.63379;103147.5;;;;-73
2022/07/08 13:46:40;;;;;;;;;;;;;;;33.65;35.64844;103147.2;;;;-74
2022/07/08 13:51:40;;;;;;;;;;;;;;;33.67;35.7334;103141.2;;;;-73
2022/07/08 13:56:40;;;;;;;;;;;;;;;33.62;35.64746;103143.8;;;;-75
2022/07/08 13:56:50;;;;;;;6.2;1.9;;;;;;;;;;;;;-75
2022/07/08 14:01:40;;;;;;;;;;;;;;;33.7;35.7002;103140.8;;;;-80
2022/07/08 14:06:40;;;;;;;;;;;;;;;33.82;35.52051;103137;;;;-79
2022/07/08 14:11:40;;;;;;;;;;;;;;;33.9;34.95996;103142.8;;;;-80
2022/07/08 14:16:43;;;;;;;;;;;;;;;33.85;33.92773;103136.2;;;;-80
2022/07/08 14:21:40;;;;;;;;;;;;;;;33.78;34.35938;103134;;;;-78
2022/07/08 14:26:40;;;;;;;;;;;;;;;33.73;34.34375;103142.2;;;;-78
2022/07/08 14:26:50;;;;;;;5.1;1.6;;;;;;;;;;;;;-78
2022/07/08 14:31:40;;;;;;;;;;;;;;;33.72;33.97656;103138.8;;;;-79
2022/07/08 14:36:40;;;;;;;;;;;;;;;33.72;33.75293;103137.3;;;;-77
2022/07/08 14:41:40;;;;;;;;;;;;;;;33.6;33.83789;103141.8;;;;-78
2022/07/08 14:46:40;;;;;;;;;;;;;;;33.42;33.9668;103141;;;;-77
2022/07/08 14:51:40;;;;;;;;;;;;;;;33.26;34.56836;103144.2;;;;-79
2022/07/08 14:56:44;;;;;;;;;;;;;;;33.09;34.54297;103143.9;;;;-81
2022/07/08 14:57:04;;;;;;;5.4;1.6;;;;;;;;;;;;;-81
2022/07/08 15:01:40;;;;;;;;;;;;;;;32.87;34.66895;103140;;;;-77
2022/07/08 15:06:40;;;;;;;;;;;;;;;32.69;35.00879;103143;;;;-76
2022/07/08 15:11:40;;;;;;;;;;;;;;;32.55;35.35156;103142.8;;;;-80
2022/07/08 15:16:41;;;;;;;;;;;;;;;32.48;35.67578;103137.2;;;;-79
2022/07/08 15:21:42;;;;;;;;;;;;;;;32.41;35.61133;103138;;;;-79
2022/07/08 15:26:40;;;;;;;;;;;;;;;32.26;36.11816;103133.3;;;;-80
2022/07/08 15:26:58;;;;;;;5.1;1.7;;;;;;;;;;;;;-79
2022/07/08 15:31:40;;;;;;;;;;;;;;;32.15;36.10938;103140;;;;-78
2022/07/08 15:36:40;;;;;;;;;;;;;;;31.97;36.04785;103140.6;;;;-79
2022/07/08 15:41:40;;;;;;;;;;;;;;;31.69;36.57813;103144.5;;;;-78
2022/07/08 15:46:42;;;;;;;;;;;;;;;31.35;37.08008;103136.9;;;;-80
2022/07/08 15:51:40;;;;;;;;;;;;;;;31.08;37.52734;103129.4;;;;-78
2022/07/08 15:56:43;;;;;;;;;;;;;;;30.88;37.80469;103122.4;;;;-79
2022/07/08 15:57:03;;;;;;;5.4;1.9;;;;;;;;;;;;;-79
2022/07/08 16:01:40;;;;;;;;;;;;;;;30.72;37.93164;103125.3;;;;-80
2022/07/08 16:06:40;;;;;;;;;;;;;;;30.53;38.19727;103130.6;;;;-81
2022/07/08 16:11:41;;;;;;;;;;;;;;;30.3;38.49316;103132.5;;;;-80
2022/07/08 16:16:40;;;;;;;;;;;;;;;29.98;38.71289;103132.6;;;;-77
2022/07/08 16:21:42;;;;;;;;;;;;;;;29.63;39.37402;103126.7;;;;-78
2022/07/08 16:26:40;;;;;;;;;;;;;;;29.29;39.53027;103124.9;;;;-79
2022/07/08 16:27:08;;;;;;;4.9;1.8;;;;;;;;;;;;;-79
2022/07/08 16:31:40;;;;;;;;;;;;;;;29.01;39.94922;103114.5;;;;-76
2022/07/08 16:36:43;;;;;;;;;;;;;;;28.77;40.0918;103106.6;;;;-79
2022/07/08 16:41:40;;;;;;;;;;;;;;;28.55;40.39941;103095.9;;;;-77
2022/07/08 16:46:40;;;;;;;;;;;;;;;28.39;40.36133;103095.2;;;;-79
2022/07/08 16:51:42;;;;;;;;;;;;;;;28.2;40.68262;103092.6;;;;-79
2022/07/08 16:56:42;;;;;;;;;;;;;;;28.04;40.7959;103090.9;;;;-79
2022/07/08 16:57:13;;;;;;;4.3;1.5;;;;;;;;;;;;;-79
2022/07/08 17:01:40;;;;;;;;;;;;;;;27.9;40.72559;103081.2;;;;-77
2022/07/08 17:06:40;;;;;;;;;;;;;;;27.76;40.60742;103082.3;;;;-74
2022/07/08 17:11:40;;;;;;;;;;;;;;;27.57;40.84668;103084.1;;;;-74
2022/07/08 17:16:40;;;;;;;;;;;;;;;27.36;41.4209;103082.2;;;;-78
2022/07/08 17:21:42;;;;;;;;;;;;;;;27.18;41.51953;103084.6;;;;-79
2022/07/08 17:26:41;;;;;;;;;;;;;;;27.03;41.35547;103081.1;;;;-77
2022/07/08 17:27:16;;;;;;;3.6;1.3;;;;;;;;;;;;;-77
2022/07/08 17:31:42;;;;;;;;;;;;;;;26.88;41.51563;103079.4;;;;-78
2022/07/08 17:36:40;;;;;;;;;;;;;;;26.71;41.52344;103085.5;;;;-78
2022/07/08 17:41:40;;;;;;;;;;;;;;;26.55;41.60254;103078.4;;;;-77
2022/07/08 17:46:45;;;;;;;;;;;;;;;26.4;41.82031;103075.1;;;;-77
2022/07/08 17:51:40;;;;;;;;;;;;;;;26.23;41.85156;103073.9;;;;-78
2022/07/08 17:56:40;;;;;;;;;;;;;;;26.07;42.09082;103075;;;;-74
2022/07/08 17:57:32;;;;;;;2.9;1.1;;;;;;;;;;;;;-74
2022/07/08 18:01:40;;;;;;;;;;;;;;;25.92;42.14746;103068.3;;;;-75
2022/07/08 18:06:40;;;;;;;;;;;;;;;25.73;42.2207;103061.6;;;;-74
2022/07/08 18:11:40;;;;;;;;;;;;;;;25.53;42.0166;103055.4;;;;-74
2022/07/08 18:16:40;;;;;;;;;;;;;;;25.36;42.09375;103045.7;;;;-73
2022/07/08 18:21:40;;;;;;;;;;;;;;;25.19;42.22852;103040.6;;;;-73
2022/07/08 18:31:40;;;;;;;;;;;;;;;24.42;47.16504;103038.6;;;;-73
2022/07/08 18:36:40;;;;;;;;;;;;;;;24.48;44.84082;103037.4;;;;-78
2022/07/08 18:41:43;;;;;;;;;;;;;;;24.53;44.04883;103040.1;;;;-77
2022/07/08 18:46:43;;;;;;;;;;;;;;;24.5;44.14941;103038;;;;-78
2022/07/08 18:51:40;;;;;;;;;;;;;;;24.43;44.12012;103034.7;;;;-77
2022/07/08 18:56:45;;;;;;;;;;;;;;;24.35;44.05469;103035.8;;;;-78
2022/07/08 18:57:27;;;;;;;2.9;1.2;;;;;;;;;;;;;-78
2022/07/08 19:01:40;;;;;;;;;;;;;;;24.24;44.10059;103036.9;;;;-78
2022/07/08 19:06:40;;;;;;;;;;;;;;;24.1;44.31738;103033.7;;;;-79
2022/07/08 19:11:41;;;;;;;;;;;;;;;23.95;44.42969;103036.1;;;;-78
2022/07/08 19:16:40;;;;;;;;;;;;;;;23.78;44.35547;103038.5;;;;-80
2022/07/08 19:21:40;;;;;;;;;;;;;;;23.58;44.39453;103040.8;;;;-78
2022/07/08 19:26:40;;;;;;;;;;;;;;;23.37;44.66016;103037.2;;;;-77
2022/07/08 19:27:31;;;;;;;3.5;1.2;;;;;;;;;;;;;-78
2022/07/08 19:31:40;;;;;;;;;;;;;;;23.15;45.06543;103039.2;;;;-77
2022/07/08 19:36:40;;;;;;;;;;;;;;;22.94;45.61816;103035.4;;;;-78
2022/07/08 19:41:40;;;;;;;;;;;;;;;22.73;45.84961;103040.1;;;;-77
2022/07/08 19:46:41;;;;;;;;;;;;;;;22.51;46.26367;103034.1;;;;-77
2022/07/08 19:51:40;;;;;;;;;;;;;;;22.26;46.6748;103034;;;;-79
2022/07/08 19:56:40;;;;;;;;;;;;;;;22.05;46.87012;103032.6;;;;-78
2022/07/08 19:57:33;;;;;;;3.5;1.2;;;;;;;;;;;;;-77
2022/07/08 20:01:40;;;;;;;;;;;;;;;21.84;47.28418;103035.7;;;;-78
2022/07/08 20:06:41;;;;;;;;;;;;;;;21.63;47.68555;103033.9;;;;-78
2022/07/08 20:11:40;;;;;;;;;;;;;;;21.42;48.13281;103036.6;;;;-78
2022/07/08 20:16:41;;;;;;;;;;;;;;;21.21;48.6709;103039.5;;;;-79
2022/07/08 20:21:40;;;;;;;;;;;;;;;21;49.08301;103031.1;;;;-75
2022/07/08 20:26:40;;;;;;;;;;;;;;;20.82;49.34863;103033.9;;;;-76
2022/07/08 20:27:36;;;;;;;3.7;1.3;;;;;;;;;;;;;-75
2022/07/08 20:31:41;;;;;;;;;;;;;;;20.64;49.78516;103031.1;;;;-78
2022/07/08 20:36:40;;;;;;;;;;;;;;;20.46;50.12012;103031.3;;;;-80
2022/07/08 20:46:40;;;;;;;;;;;;;;;20.16;50.89648;103026.1;;;;-78
2022/07/08 20:51:40;;;;;;;;;;;;;;;20.01;51.0625;103025;;;;-77
2022/07/08 20:56:40;;;;;;;;;;;;;;;19.87;51.39941;103024.6;;;;-77
2022/07/08 20:57:38;;;;;;;2.9;1.5;;;;;;;;;;;;;-76
2022/07/08 21:31:14;;;;;;;;;;;;;;;19.02;52.71191;103018.1;;;;-83
2022/07/08 21:36:25;;;;;;;;;;;;;;;18.9;53.18555;103018;;;;-82
2022/07/08 22:12:22;;;;;;;;;;;;;;;18.5;53.67188;102994.7;;;;-84
2022/07/08 22:17:39;;;;;;;;;;;;;;;18.64;53.16602;103003.5;;;;-81
2022/07/08 23:26:33;;;;;;;;;;;;;;;17.69;54.62891;102936.8;;;;-82
2022/07/08 23:39:57;;;;;;;;;;;;;;;17.4;55.52051;102935.2;;;;-82
